sensor_id;sensor_type;location;lat;lon;timestamp;P1;durP1;ratioP1;P2;durP2;ratioP2
37785;SDS011;23625;48.784;9.336;2022-09-21T00:01:59;14.75;;;4.32;;
37785;SDS011;23625;48.784;9.336;2022-09-21T00:04:24;8.05;;;3.88;;
37785;SDS011;23625;48.784;9.336;2022-09-21T00:06:50;8.48;;;3.90;;
37785;SDS011;23625;48.784;9.336;2022-09-21T00:09:15;10.45;;;3.72;;
37785;SDS011;23625;48.784;9.336;2022-09-21T00:11:41;7.65;;;3.58;;
37785;SDS011;23625;48.784;9.336;2022-09-21T00:14:12;17.85;;;4.32;;
37785;SDS011;23625;48.784;9.336;2022-09-21T00:16:39;12.90;;;4.13;;
37785;SDS011;23625;48.784;9.336;2022-09-21T00:19:06;5.43;;;3.60;;
37785;SDS011;23625;48.784;9.336;2022-09-21T00:21:33;17.67;;;4.63;;
37785;SDS011;23625;48.784;9.336;2022-09-21T00:23:59;13.40;;;4.47;;
37785;SDS011;23625;48.784;9.336;2022-09-21T00:26:26;9.45;;;4.25;;
37785;SDS011;23625;48.784;9.336;2022-09-21T00:28:53;9.52;;;4.53;;
37785;SDS011;23625;48.784;9.336;2022-09-21T00:31:19;13.40;;;5.00;;
37785;SDS011;23625;48.784;9.336;2022-09-21T00:33:45;11.73;;;4.60;;
37785;SDS011;23625;48.784;9.336;2022-09-21T00:36:12;13.10;;;4.32;;
37785;SDS011;23625;48.784;9.336;2022-09-21T00:38:39;15.10;;;4.30;;
37785;SDS011;23625;48.784;9.336;2022-09-21T00:41:06;10.65;;;3.95;;
37785;SDS011;23625;48.784;9.336;2022-09-21T00:43:33;7.80;;;4.20;;
37785;SDS011;23625;48.784;9.336;2022-09-21T00:46:02;14.32;;;5.15;;
37785;SDS011;23625;48.784;9.336;2022-09-21T00:48:37;11.43;;;4.20;;
37785;SDS011;23625;48.784;9.336;2022-09-21T00:51:05;12.95;;;4.22;;
37785;SDS011;23625;48.784;9.336;2022-09-21T00:53:32;14.57;;;4.40;;
37785;SDS011;23625;48.784;9.336;2022-09-21T00:55:58;15.98;;;4.43;;
37785;SDS011;23625;48.784;9.336;2022-09-21T00:58:30;8.43;;;4.18;;
37785;SDS011;23625;48.784;9.336;2022-09-21T01:01:00;8.25;;;4.05;;
37785;SDS011;23625;48.784;9.336;2022-09-21T01:03:25;10.40;;;3.88;;
37785;SDS011;23625;48.784;9.336;2022-09-21T01:05:53;20.65;;;4.47;;
37785;SDS011;23625;48.784;9.336;2022-09-21T01:08:19;11.82;;;3.95;;
37785;SDS011;23625;48.784;9.336;2022-09-21T01:16:29;13.00;;;4.45;;
37785;SDS011;23625;48.784;9.336;2022-09-21T01:19:05;10.75;;;4.00;;
37785;SDS011;23625;48.784;9.336;2022-09-21T01:24:50;8.30;;;4.20;;
37785;SDS011;23625;48.784;9.336;2022-09-21T01:27:47;12.38;;;4.55;;
37785;SDS011;23625;48.784;9.336;2022-09-21T01:30:21;8.93;;;3.72;;
37785;SDS011;23625;48.784;9.336;2022-09-21T01:32:55;11.27;;;4.18;;
37785;SDS011;23625;48.784;9.336;2022-09-21T01:35:28;13.85;;;4.57;;
37785;SDS011;23625;48.784;9.336;2022-09-21T01:38:01;9.48;;;4.50;;
37785;SDS011;23625;48.784;9.336;2022-09-21T01:40:36;9.30;;;4.68;;
37785;SDS011;23625;48.784;9.336;2022-09-21T01:43:06;12.20;;;4.50;;
37785;SDS011;23625;48.784;9.336;2022-09-21T01:45:38;12.75;;;4.07;;
37785;SDS011;23625;48.784;9.336;2022-09-21T01:48:08;13.82;;;4.43;;
37785;SDS011;23625;48.784;9.336;2022-09-21T01:50:36;12.98;;;4.88;;
37785;SDS011;23625;48.784;9.336;2022-09-21T01:55:45;12.73;;;4.28;;
37785;SDS011;23625;48.784;9.336;2022-09-21T02:00:59;9.32;;;4.20;;
37785;SDS011;23625;48.784;9.336;2022-09-21T02:03:31;12.98;;;4.50;;
37785;SDS011;23625;48.784;9.336;2022-09-21T02:06:02;9.82;;;4.07;;
37785;SDS011;23625;48.784;9.336;2022-09-21T02:08:30;12.65;;;4.45;;
37785;SDS011;23625;48.784;9.336;2022-09-21T02:10:56;6.72;;;3.70;;
37785;SDS011;23625;48.784;9.336;2022-09-21T02:13:29;9.05;;;3.90;;
37785;SDS011;23625;48.784;9.336;2022-09-21T02:19:14;6.10;;;3.80;;
37785;SDS011;23625;48.784;9.336;2022-09-21T02:21:55;8.65;;;4.05;;
37785;SDS011;23625;48.784;9.336;2022-09-21T02:27:05;10.25;;;4.40;;
37785;SDS011;23625;48.784;9.336;2022-09-21T02:35:07;9.98;;;3.90;;
37785;SDS011;23625;48.784;9.336;2022-09-21T02:37:50;9.45;;;3.80;;
37785;SDS011;23625;48.784;9.336;2022-09-21T02:43:00;11.70;;;4.30;;
37785;SDS011;23625;48.784;9.336;2022-09-21T02:45:33;9.38;;;4.18;;
37785;SDS011;23625;48.784;9.336;2022-09-21T02:48:13;12.77;;;4.38;;
37785;SDS011;23625;48.784;9.336;2022-09-21T02:50:46;13.23;;;5.53;;
37785;SDS011;23625;48.784;9.336;2022-09-21T02:53:25;11.20;;;4.68;;
37785;SDS011;23625;48.784;9.336;2022-09-21T02:55:54;11.10;;;4.43;;
37785;SDS011;23625;48.784;9.336;2022-09-21T02:58:23;17.15;;;5.15;;
37785;SDS011;23625;48.784;9.336;2022-09-21T03:00:51;14.07;;;4.82;;
37785;SDS011;23625;48.784;9.336;2022-09-21T03:03:19;13.63;;;4.60;;
37785;SDS011;23625;48.784;9.336;2022-09-21T03:05:47;10.13;;;4.80;;
37785;SDS011;23625;48.784;9.336;2022-09-21T03:08:15;11.63;;;4.85;;
37785;SDS011;23625;48.784;9.336;2022-09-21T03:10:41;9.65;;;4.88;;
37785;SDS011;23625;48.784;9.336;2022-09-21T03:13:07;9.60;;;4.63;;
37785;SDS011;23625;48.784;9.336;2022-09-21T03:15:34;15.40;;;5.75;;
37785;SDS011;23625;48.784;9.336;2022-09-21T03:18:01;12.32;;;5.30;;
37785;SDS011;23625;48.784;9.336;2022-09-21T03:20:29;10.68;;;5.35;;
37785;SDS011;23625;48.784;9.336;2022-09-21T03:22:56;8.73;;;4.22;;
37785;SDS011;23625;48.784;9.336;2022-09-21T03:25:22;13.07;;;5.07;;
37785;SDS011;23625;48.784;9.336;2022-09-21T03:27:48;10.43;;;4.38;;
37785;SDS011;23625;48.784;9.336;2022-09-21T03:30:17;13.80;;;5.25;;
37785;SDS011;23625;48.784;9.336;2022-09-21T03:32:50;10.68;;;4.53;;
37785;SDS011;23625;48.784;9.336;2022-09-21T03:35:17;13.13;;;5.07;;
37785;SDS011;23625;48.784;9.336;2022-09-21T03:37:44;13.95;;;5.07;;
37785;SDS011;23625;48.784;9.336;2022-09-21T03:40:13;10.00;;;4.72;;
37785;SDS011;23625;48.784;9.336;2022-09-21T03:42:40;15.75;;;5.30;;
37785;SDS011;23625;48.784;9.336;2022-09-21T03:45:06;9.95;;;5.30;;
37785;SDS011;23625;48.784;9.336;2022-09-21T03:47:33;7.85;;;4.50;;
37785;SDS011;23625;48.784;9.336;2022-09-21T03:49:59;10.95;;;5.13;;
37785;SDS011;23625;48.784;9.336;2022-09-21T03:52:25;11.95;;;4.90;;
37785;SDS011;23625;48.784;9.336;2022-09-21T03:54:50;10.40;;;4.57;;
37785;SDS011;23625;48.784;9.336;2022-09-21T03:57:16;9.65;;;4.25;;
37785;SDS011;23625;48.784;9.336;2022-09-21T03:59:42;11.57;;;4.82;;
37785;SDS011;23625;48.784;9.336;2022-09-21T04:02:08;12.65;;;5.38;;
37785;SDS011;23625;48.784;9.336;2022-09-21T04:04:33;11.27;;;5.15;;
37785;SDS011;23625;48.784;9.336;2022-09-21T04:06:59;10.75;;;5.55;;
37785;SDS011;23625;48.784;9.336;2022-09-21T04:09:25;13.18;;;5.65;;
37785;SDS011;23625;48.784;9.336;2022-09-21T04:11:50;30.08;;;10.70;;
37785;SDS011;23625;48.784;9.336;2022-09-21T04:14:17;15.63;;;7.07;;
37785;SDS011;23625;48.784;9.336;2022-09-21T04:16:44;14.38;;;6.28;;
37785;SDS011;23625;48.784;9.336;2022-09-21T04:19:10;26.88;;;14.57;;
37785;SDS011;23625;48.784;9.336;2022-09-21T04:21:35;12.57;;;8.82;;
37785;SDS011;23625;48.784;9.336;2022-09-21T04:24:01;17.77;;;8.82;;
37785;SDS011;23625;48.784;9.336;2022-09-21T04:26:28;10.10;;;5.68;;
37785;SDS011;23625;48.784;9.336;2022-09-21T04:28:56;9.90;;;5.05;;
37785;SDS011;23625;48.784;9.336;2022-09-21T04:31:23;10.63;;;4.90;;
37785;SDS011;23625;48.784;9.336;2022-09-21T04:33:50;12.20;;;5.20;;
37785;SDS011;23625;48.784;9.336;2022-09-21T04:36:17;15.50;;;5.95;;
37785;SDS011;23625;48.784;9.336;2022-09-21T04:38:44;14.93;;;5.45;;
37785;SDS011;23625;48.784;9.336;2022-09-21T04:41:10;16.60;;;5.45;;
37785;SDS011;23625;48.784;9.336;2022-09-21T04:43:36;12.38;;;5.30;;
37785;SDS011;23625;48.784;9.336;2022-09-21T04:46:03;13.15;;;5.03;;
37785;SDS011;23625;48.784;9.336;2022-09-21T04:48:33;12.32;;;5.63;;
37785;SDS011;23625;48.784;9.336;2022-09-21T04:50:59;14.98;;;6.00;;
37785;SDS011;23625;48.784;9.336;2022-09-21T04:53:25;10.35;;;5.32;;
37785;SDS011;23625;48.784;9.336;2022-09-21T04:55:51;132.82;;;43.67;;
37785;SDS011;23625;48.784;9.336;2022-09-21T04:58:17;43.38;;;14.73;;
37785;SDS011;23625;48.784;9.336;2022-09-21T05:00:42;191.13;;;65.50;;
37785;SDS011;23625;48.784;9.336;2022-09-21T05:03:08;84.63;;;37.47;;
37785;SDS011;23625;48.784;9.336;2022-09-21T05:05:33;27.92;;;12.70;;
37785;SDS011;23625;48.784;9.336;2022-09-21T05:07:59;19.27;;;7.40;;
37785;SDS011;23625;48.784;9.336;2022-09-21T05:10:25;19.20;;;8.82;;
37785;SDS011;23625;48.784;9.336;2022-09-21T05:12:50;18.25;;;10.35;;
37785;SDS011;23625;48.784;9.336;2022-09-21T05:15:16;16.60;;;7.45;;
37785;SDS011;23625;48.784;9.336;2022-09-21T05:17:42;16.80;;;6.03;;
37785;SDS011;23625;48.784;9.336;2022-09-21T05:20:08;10.77;;;5.60;;
37785;SDS011;23625;48.784;9.336;2022-09-21T05:22:35;15.27;;;6.15;;
37785;SDS011;23625;48.784;9.336;2022-09-21T05:25:01;14.25;;;6.55;;
37785;SDS011;23625;48.784;9.336;2022-09-21T05:27:27;19.70;;;6.80;;
37785;SDS011;23625;48.784;9.336;2022-09-21T05:29:53;14.27;;;6.65;;
37785;SDS011;23625;48.784;9.336;2022-09-21T05:37:36;11.55;;;6.25;;
37785;SDS011;23625;48.784;9.336;2022-09-21T05:40:21;16.80;;;6.47;;
37785;SDS011;23625;48.784;9.336;2022-09-21T05:42:47;17.63;;;5.88;;
37785;SDS011;23625;48.784;9.336;2022-09-21T05:45:14;15.85;;;7.13;;
37785;SDS011;23625;48.784;9.336;2022-09-21T05:52:46;17.08;;;8.40;;
37785;SDS011;23625;48.784;9.336;2022-09-21T05:58:17;18.83;;;7.30;;
37785;SDS011;23625;48.784;9.336;2022-09-21T06:03:38;14.65;;;7.07;;
37785;SDS011;23625;48.784;9.336;2022-09-21T06:06:06;14.15;;;7.80;;
37785;SDS011;23625;48.784;9.336;2022-09-21T06:08:32;22.10;;;7.60;;
37785;SDS011;23625;48.784;9.336;2022-09-21T06:10:58;20.70;;;7.00;;
37785;SDS011;23625;48.784;9.336;2022-09-21T06:13:24;16.13;;;7.65;;
37785;SDS011;23625;48.784;9.336;2022-09-21T06:15:50;17.13;;;7.50;;
37785;SDS011;23625;48.784;9.336;2022-09-21T06:18:16;19.58;;;9.23;;
37785;SDS011;23625;48.784;9.336;2022-09-21T06:20:42;20.45;;;9.82;;
37785;SDS011;23625;48.784;9.336;2022-09-21T06:23:09;22.58;;;9.57;;
37785;SDS011;23625;48.784;9.336;2022-09-21T06:25:36;18.48;;;8.20;;
37785;SDS011;23625;48.784;9.336;2022-09-21T06:28:06;18.98;;;8.38;;
37785;SDS011;23625;48.784;9.336;2022-09-21T06:30:36;19.90;;;7.97;;
37785;SDS011;23625;48.784;9.336;2022-09-21T06:33:04;18.98;;;8.10;;
37785;SDS011;23625;48.784;9.336;2022-09-21T06:35:31;17.92;;;8.05;;
37785;SDS011;23625;48.784;9.336;2022-09-21T06:37:58;24.63;;;8.40;;
37785;SDS011;23625;48.784;9.336;2022-09-21T06:40:25;23.58;;;9.38;;
37785;SDS011;23625;48.784;9.336;2022-09-21T06:42:54;24.58;;;8.82;;
37785;SDS011;23625;48.784;9.336;2022-09-21T06:45:21;20.88;;;8.27;;
37785;SDS011;23625;48.784;9.336;2022-09-21T06:47:46;19.35;;;8.77;;
37785;SDS011;23625;48.784;9.336;2022-09-21T06:50:12;23.35;;;9.55;;
37785;SDS011;23625;48.784;9.336;2022-09-21T06:52:38;22.80;;;9.77;;
37785;SDS011;23625;48.784;9.336;2022-09-21T06:55:04;23.73;;;9.75;;
37785;SDS011;23625;48.784;9.336;2022-09-21T06:57:30;20.08;;;9.93;;
37785;SDS011;23625;48.784;9.336;2022-09-21T06:59:56;24.45;;;9.50;;
37785;SDS011;23625;48.784;9.336;2022-09-21T07:02:22;21.92;;;10.18;;
37785;SDS011;23625;48.784;9.336;2022-09-21T07:04:47;20.52;;;9.90;;
37785;SDS011;23625;48.784;9.336;2022-09-21T07:07:13;19.38;;;9.98;;
37785;SDS011;23625;48.784;9.336;2022-09-21T07:09:39;18.92;;;8.82;;
37785;SDS011;23625;48.784;9.336;2022-09-21T07:12:05;37.00;;;9.65;;
37785;SDS011;23625;48.784;9.336;2022-09-21T07:14:32;17.80;;;9.13;;
37785;SDS011;23625;48.784;9.336;2022-09-21T07:16:57;20.00;;;7.78;;
37785;SDS011;23625;48.784;9.336;2022-09-21T07:19:23;24.98;;;7.82;;
37785;SDS011;23625;48.784;9.336;2022-09-21T07:21:52;18.58;;;7.45;;
37785;SDS011;23625;48.784;9.336;2022-09-21T07:24:18;15.45;;;7.82;;
37785;SDS011;23625;48.784;9.336;2022-09-21T07:26:43;18.17;;;8.20;;
37785;SDS011;23625;48.784;9.336;2022-09-21T07:29:09;17.35;;;7.68;;
37785;SDS011;23625;48.784;9.336;2022-09-21T07:31:35;17.20;;;7.35;;
37785;SDS011;23625;48.784;9.336;2022-09-21T07:34:01;19.80;;;7.85;;
37785;SDS011;23625;48.784;9.336;2022-09-21T07:36:26;22.00;;;8.05;;
37785;SDS011;23625;48.784;9.336;2022-09-21T07:38:52;14.10;;;7.00;;
37785;SDS011;23625;48.784;9.336;2022-09-21T07:41:18;15.70;;;8.00;;
37785;SDS011;23625;48.784;9.336;2022-09-21T07:43:44;31.55;;;10.75;;
37785;SDS011;23625;48.784;9.336;2022-09-21T07:46:11;25.58;;;9.63;;
37785;SDS011;23625;48.784;9.336;2022-09-21T07:48:38;16.90;;;7.00;;
37785;SDS011;23625;48.784;9.336;2022-09-21T07:51:05;15.55;;;7.18;;
37785;SDS011;23625;48.784;9.336;2022-09-21T07:53:33;14.70;;;7.15;;
37785;SDS011;23625;48.784;9.336;2022-09-21T07:56:00;14.48;;;7.32;;
37785;SDS011;23625;48.784;9.336;2022-09-21T07:58:27;12.30;;;6.20;;
37785;SDS011;23625;48.784;9.336;2022-09-21T08:01:11;21.25;;;8.02;;
37785;SDS011;23625;48.784;9.336;2022-09-21T08:03:37;16.58;;;6.70;;
37785;SDS011;23625;48.784;9.336;2022-09-21T08:06:02;12.93;;;5.82;;
37785;SDS011;23625;48.784;9.336;2022-09-21T08:08:28;37.50;;;17.10;;
37785;SDS011;23625;48.784;9.336;2022-09-21T08:10:54;17.45;;;8.23;;
37785;SDS011;23625;48.784;9.336;2022-09-21T08:13:21;16.92;;;6.20;;
37785;SDS011;23625;48.784;9.336;2022-09-21T08:15:55;12.57;;;5.53;;
37785;SDS011;23625;48.784;9.336;2022-09-21T08:18:22;15.88;;;6.88;;
37785;SDS011;23625;48.784;9.336;2022-09-21T08:20:54;8.48;;;4.93;;
37785;SDS011;23625;48.784;9.336;2022-09-21T08:23:23;9.82;;;5.38;;
37785;SDS011;23625;48.784;9.336;2022-09-21T08:25:56;17.20;;;5.72;;
37785;SDS011;23625;48.784;9.336;2022-09-21T08:28:26;13.77;;;5.15;;
37785;SDS011;23625;48.784;9.336;2022-09-21T08:30:52;10.73;;;5.30;;
37785;SDS011;23625;48.784;9.336;2022-09-21T08:33:18;9.98;;;5.15;;
37785;SDS011;23625;48.784;9.336;2022-09-21T08:35:50;17.95;;;5.70;;
37785;SDS011;23625;48.784;9.336;2022-09-21T08:38:17;12.00;;;5.28;;
37785;SDS011;23625;48.784;9.336;2022-09-21T08:40:42;9.95;;;4.47;;
37785;SDS011;23625;48.784;9.336;2022-09-21T08:43:21;9.55;;;4.35;;
37785;SDS011;23625;48.784;9.336;2022-09-21T08:45:54;13.13;;;5.28;;
37785;SDS011;23625;48.784;9.336;2022-09-21T08:48:22;8.48;;;3.97;;
37785;SDS011;23625;48.784;9.336;2022-09-21T08:50:53;15.43;;;5.40;;
37785;SDS011;23625;48.784;9.336;2022-09-21T08:56:10;10.00;;;4.72;;
37785;SDS011;23625;48.784;9.336;2022-09-21T08:58:37;10.18;;;3.50;;
37785;SDS011;23625;48.784;9.336;2022-09-21T09:04:05;8.80;;;4.18;;
37785;SDS011;23625;48.784;9.336;2022-09-21T09:15:25;5.95;;;2.47;;
37785;SDS011;23625;48.784;9.336;2022-09-21T09:18:09;9.38;;;2.60;;
37785;SDS011;23625;48.784;9.336;2022-09-21T09:20:43;4.60;;;1.90;;
37785;SDS011;23625;48.784;9.336;2022-09-21T09:23:15;4.97;;;2.00;;
37785;SDS011;23625;48.784;9.336;2022-09-21T09:25:50;5.07;;;1.50;;
37785;SDS011;23625;48.784;9.336;2022-09-21T09:28:28;4.25;;;1.38;;
37785;SDS011;23625;48.784;9.336;2022-09-21T09:30:59;6.82;;;1.95;;
37785;SDS011;23625;48.784;9.336;2022-09-21T09:33:54;6.20;;;1.75;;
37785;SDS011;23625;48.784;9.336;2022-09-21T09:36:24;9.25;;;1.83;;
37785;SDS011;23625;48.784;9.336;2022-09-21T09:44:29;5.75;;;1.50;;
37785;SDS011;23625;48.784;9.336;2022-09-21T09:50:07;4.55;;;1.23;;
37785;SDS011;23625;48.784;9.336;2022-09-21T09:52:35;11.00;;;1.27;;
37785;SDS011;23625;48.784;9.336;2022-09-21T09:55:10;7.72;;;3.55;;
37785;SDS011;23625;48.784;9.336;2022-09-21T09:57:44;15.55;;;5.32;;
37785;SDS011;23625;48.784;9.336;2022-09-21T10:00:14;4.15;;;1.20;;
37785;SDS011;23625;48.784;9.336;2022-09-21T10:07:44;8.65;;;1.88;;
37785;SDS011;23625;48.784;9.336;2022-09-21T10:10:29;1.95;;;0.75;;
37785;SDS011;23625;48.784;9.336;2022-09-21T10:15:33;5.30;;;0.80;;
37785;SDS011;23625;48.784;9.336;2022-09-21T10:21:26;3.28;;;1.02;;
37785;SDS011;23625;48.784;9.336;2022-09-21T10:24:02;3.88;;;0.70;;
37785;SDS011;23625;48.784;9.336;2022-09-21T10:26:36;6.10;;;0.98;;
37785;SDS011;23625;48.784;9.336;2022-09-21T10:29:26;2.83;;;0.50;;
37785;SDS011;23625;48.784;9.336;2022-09-21T10:34:40;4.28;;;1.17;;
37785;SDS011;23625;48.784;9.336;2022-09-21T10:37:25;1.02;;;0.40;;
37785;SDS011;23625;48.784;9.336;2022-09-21T10:39:52;3.70;;;0.60;;
37785;SDS011;23625;48.784;9.336;2022-09-21T10:42:19;3.00;;;0.98;;
37785;SDS011;23625;48.784;9.336;2022-09-21T10:44:46;1.38;;;0.77;;
37785;SDS011;23625;48.784;9.336;2022-09-21T10:47:18;2.45;;;1.30;;
37785;SDS011;23625;48.784;9.336;2022-09-21T10:49:52;2.83;;;1.10;;
37785;SDS011;23625;48.784;9.336;2022-09-21T10:52:20;26.50;;;11.82;;
37785;SDS011;23625;48.784;9.336;2022-09-21T10:54:49;3.20;;;1.23;;
37785;SDS011;23625;48.784;9.336;2022-09-21T10:57:18;6.72;;;0.93;;
37785;SDS011;23625;48.784;9.336;2022-09-21T10:59:46;5.07;;;0.80;;
37785;SDS011;23625;48.784;9.336;2022-09-21T11:18:01;4.00;;;0.75;;
37785;SDS011;23625;48.784;9.336;2022-09-21T11:20:48;1.00;;;0.50;;
37785;SDS011;23625;48.784;9.336;2022-09-21T11:29:15;1.85;;;0.50;;
37785;SDS011;23625;48.784;9.336;2022-09-21T11:37:45;5.07;;;0.70;;
37785;SDS011;23625;48.784;9.336;2022-09-21T11:40:41;1.40;;;0.63;;
37785;SDS011;23625;48.784;9.336;2022-09-21T11:45:52;2.88;;;0.80;;
37785;SDS011;23625;48.784;9.336;2022-09-21T11:56:52;2.47;;;0.70;;
37785;SDS011;23625;48.784;9.336;2022-09-21T11:59:46;3.15;;;0.70;;
37785;SDS011;23625;48.784;9.336;2022-09-21T12:04:54;6.32;;;1.00;;
37785;SDS011;23625;48.784;9.336;2022-09-21T12:10:21;5.15;;;0.90;;
37785;SDS011;23625;48.784;9.336;2022-09-21T12:15:50;4.07;;;0.82;;
37785;SDS011;23625;48.784;9.336;2022-09-21T12:18:40;1.15;;;0.55;;
37785;SDS011;23625;48.784;9.336;2022-09-21T12:21:25;1.08;;;0.52;;
37785;SDS011;23625;48.784;9.336;2022-09-21T12:23:55;1.95;;;0.85;;
37785;SDS011;23625;48.784;9.336;2022-09-21T12:26:28;3.20;;;0.57;;
37785;SDS011;23625;48.784;9.336;2022-09-21T12:32:24;1.13;;;0.50;;
37785;SDS011;23625;48.784;9.336;2022-09-21T12:35:13;3.75;;;0.70;;
37785;SDS011;23625;48.784;9.336;2022-09-21T12:37:45;2.45;;;0.60;;
37785;SDS011;23625;48.784;9.336;2022-09-21T12:43:03;1.50;;;0.60;;
37785;SDS011;23625;48.784;9.336;2022-09-21T12:45:39;1.48;;;0.47;;
37785;SDS011;23625;48.784;9.336;2022-09-21T12:51:24;4.97;;;0.55;;
37785;SDS011;23625;48.784;9.336;2022-09-21T12:53:57;1.27;;;0.55;;
37785;SDS011;23625;48.784;9.336;2022-09-21T13:02:10;3.08;;;1.10;;
37785;SDS011;23625;48.784;9.336;2022-09-21T13:07:14;1.33;;;0.98;;
37785;SDS011;23625;48.784;9.336;2022-09-21T13:09:44;1.70;;;0.95;;
37785;SDS011;23625;48.784;9.336;2022-09-21T13:12:14;2.65;;;0.90;;
37785;SDS011;23625;48.784;9.336;2022-09-21T13:14:48;4.82;;;0.60;;
37785;SDS011;23625;48.784;9.336;2022-09-21T13:17:18;0.90;;;0.60;;
37785;SDS011;23625;48.784;9.336;2022-09-21T13:19:54;4.90;;;0.90;;
37785;SDS011;23625;48.784;9.336;2022-09-21T13:22:29;1.63;;;1.02;;
37785;SDS011;23625;48.784;9.336;2022-09-21T13:24:58;0.70;;;0.52;;
37785;SDS011;23625;48.784;9.336;2022-09-21T13:33:30;4.05;;;0.73;;
37785;SDS011;23625;48.784;9.336;2022-09-21T13:43:40;0.63;;;0.50;;
37785;SDS011;23625;48.784;9.336;2022-09-21T13:49:01;2.90;;;1.10;;
37785;SDS011;23625;48.784;9.336;2022-09-21T13:51:28;1.48;;;0.80;;
37785;SDS011;23625;48.784;9.336;2022-09-21T13:53:57;2.33;;;0.50;;
37785;SDS011;23625;48.784;9.336;2022-09-21T13:56:26;1.17;;;0.65;;
37785;SDS011;23625;48.784;9.336;2022-09-21T13:58:52;0.95;;;0.57;;
37785;SDS011;23625;48.784;9.336;2022-09-21T14:01:31;2.25;;;0.70;;
37785;SDS011;23625;48.784;9.336;2022-09-21T14:04:03;1.70;;;0.70;;
37785;SDS011;23625;48.784;9.336;2022-09-21T14:06:41;8.02;;;3.92;;
37785;SDS011;23625;48.784;9.336;2022-09-21T14:14:41;9.65;;;1.73;;
37785;SDS011;23625;48.784;9.336;2022-09-21T14:19:59;3.95;;;0.60;;
37785;SDS011;23625;48.784;9.336;2022-09-21T14:27:46;1.95;;;0.68;;
37785;SDS011;23625;48.784;9.336;2022-09-21T14:32:48;1.17;;;0.70;;
37785;SDS011;23625;48.784;9.336;2022-09-21T14:35:39;1.77;;;0.70;;
37785;SDS011;23625;48.784;9.336;2022-09-21T14:38:16;2.70;;;0.60;;
37785;SDS011;23625;48.784;9.336;2022-09-21T14:40:49;3.10;;;0.60;;
37785;SDS011;23625;48.784;9.336;2022-09-21T14:43:21;1.08;;;0.75;;
37785;SDS011;23625;48.784;9.336;2022-09-21T14:48:46;3.00;;;0.68;;
37785;SDS011;23625;48.784;9.336;2022-09-21T14:57:06;1.58;;;1.00;;
37785;SDS011;23625;48.784;9.336;2022-09-21T15:02:25;3.35;;;0.60;;
37785;SDS011;23625;48.784;9.336;2022-09-21T15:05:03;3.30;;;0.50;;
37785;SDS011;23625;48.784;9.336;2022-09-21T15:07:37;2.33;;;0.85;;
37785;SDS011;23625;48.784;9.336;2022-09-21T15:14:03;4.70;;;0.75;;
37785;SDS011;23625;48.784;9.336;2022-09-21T15:18:50;2.22;;;0.57;;
37785;SDS011;23625;48.784;9.336;2022-09-21T15:21:25;0.80;;;0.60;;
37785;SDS011;23625;48.784;9.336;2022-09-21T15:23:53;2.38;;;0.82;;
37785;SDS011;23625;48.784;9.336;2022-09-21T15:26:23;3.85;;;0.85;;
37785;SDS011;23625;48.784;9.336;2022-09-21T15:29:03;3.33;;;0.88;;
37785;SDS011;23625;48.784;9.336;2022-09-21T15:31:32;2.22;;;1.10;;
37785;SDS011;23625;48.784;9.336;2022-09-21T15:33:59;1.30;;;0.60;;
37785;SDS011;23625;48.784;9.336;2022-09-21T15:36:28;0.70;;;0.60;;
37785;SDS011;23625;48.784;9.336;2022-09-21T15:38:55;4.18;;;0.70;;
37785;SDS011;23625;48.784;9.336;2022-09-21T15:44:24;3.95;;;1.30;;
37785;SDS011;23625;48.784;9.336;2022-09-21T15:46:57;6.03;;;1.10;;
37785;SDS011;23625;48.784;9.336;2022-09-21T15:49:27;1.70;;;0.88;;
37785;SDS011;23625;48.784;9.336;2022-09-21T15:52:10;1.90;;;1.05;;
37785;SDS011;23625;48.784;9.336;2022-09-21T15:55:17;3.22;;;0.55;;
37785;SDS011;23625;48.784;9.336;2022-09-21T15:57:46;2.28;;;0.70;;
37785;SDS011;23625;48.784;9.336;2022-09-21T16:00:23;0.43;;;0.40;;
37785;SDS011;23625;48.784;9.336;2022-09-21T16:02:59;2.45;;;0.80;;
37785;SDS011;23625;48.784;9.336;2022-09-21T16:05:32;0.50;;;0.50;;
37785;SDS011;23625;48.784;9.336;2022-09-21T16:11:10;0.77;;;0.50;;
37785;SDS011;23625;48.784;9.336;2022-09-21T16:13:36;1.20;;;0.47;;
37785;SDS011;23625;48.784;9.336;2022-09-21T16:16:20;1.90;;;0.70;;
37785;SDS011;23625;48.784;9.336;2022-09-21T16:18:50;3.45;;;0.70;;
37785;SDS011;23625;48.784;9.336;2022-09-21T16:21:23;2.63;;;0.63;;
37785;SDS011;23625;48.784;9.336;2022-09-21T16:23:53;0.93;;;0.40;;
37785;SDS011;23625;48.784;9.336;2022-09-21T16:26:31;3.45;;;0.63;;
37785;SDS011;23625;48.784;9.336;2022-09-21T16:29:19;0.77;;;0.60;;
37785;SDS011;23625;48.784;9.336;2022-09-21T16:31:47;1.20;;;0.57;;
37785;SDS011;23625;48.784;9.336;2022-09-21T16:34:30;1.65;;;0.57;;
37785;SDS011;23625;48.784;9.336;2022-09-21T16:37:01;3.00;;;0.75;;
37785;SDS011;23625;48.784;9.336;2022-09-21T16:39:48;1.00;;;0.70;;
37785;SDS011;23625;48.784;9.336;2022-09-21T16:42:18;2.25;;;0.88;;
37785;SDS011;23625;48.784;9.336;2022-09-21T16:44:45;1.73;;;0.70;;
37785;SDS011;23625;48.784;9.336;2022-09-21T16:47:29;3.83;;;1.52;;
37785;SDS011;23625;48.784;9.336;2022-09-21T16:50:00;5.75;;;1.08;;
37785;SDS011;23625;48.784;9.336;2022-09-21T16:52:26;3.05;;;0.52;;
37785;SDS011;23625;48.784;9.336;2022-09-21T16:54:53;2.40;;;0.55;;
37785;SDS011;23625;48.784;9.336;2022-09-21T16:57:20;0.60;;;0.50;;
37785;SDS011;23625;48.784;9.336;2022-09-21T16:59:47;1.08;;;0.60;;
37785;SDS011;23625;48.784;9.336;2022-09-21T17:02:14;4.85;;;1.02;;
37785;SDS011;23625;48.784;9.336;2022-09-21T17:04:41;1.38;;;0.63;;
37785;SDS011;23625;48.784;9.336;2022-09-21T17:07:09;3.17;;;0.80;;
37785;SDS011;23625;48.784;9.336;2022-09-21T17:09:40;3.10;;;0.50;;
37785;SDS011;23625;48.784;9.336;2022-09-21T17:12:13;6.68;;;0.82;;
37785;SDS011;23625;48.784;9.336;2022-09-21T17:14:40;2.65;;;0.90;;
37785;SDS011;23625;48.784;9.336;2022-09-21T17:17:21;4.60;;;0.70;;
37785;SDS011;23625;48.784;9.336;2022-09-21T17:19:48;1.80;;;0.75;;
37785;SDS011;23625;48.784;9.336;2022-09-21T17:22:16;2.72;;;0.70;;
37785;SDS011;23625;48.784;9.336;2022-09-21T17:24:42;4.20;;;1.08;;
37785;SDS011;23625;48.784;9.336;2022-09-21T17:27:13;1.30;;;0.55;;
37785;SDS011;23625;48.784;9.336;2022-09-21T17:29:42;1.63;;;0.50;;
37785;SDS011;23625;48.784;9.336;2022-09-21T17:32:13;4.53;;;1.00;;
37785;SDS011;23625;48.784;9.336;2022-09-21T17:34:40;1.20;;;0.80;;
37785;SDS011;23625;48.784;9.336;2022-09-21T17:37:06;1.80;;;0.70;;
37785;SDS011;23625;48.784;9.336;2022-09-21T17:39:33;2.78;;;0.90;;
37785;SDS011;23625;48.784;9.336;2022-09-21T17:49:46;4.53;;;0.93;;
37785;SDS011;23625;48.784;9.336;2022-09-21T17:52:14;2.70;;;0.90;;
37785;SDS011;23625;48.784;9.336;2022-09-21T17:55:00;3.67;;;1.20;;
37785;SDS011;23625;48.784;9.336;2022-09-21T18:02:44;1.25;;;1.08;;
37785;SDS011;23625;48.784;9.336;2022-09-21T18:05:26;2.55;;;1.40;;
37785;SDS011;23625;48.784;9.336;2022-09-21T18:07:53;11.77;;;1.58;;
37785;SDS011;23625;48.784;9.336;2022-09-21T18:10:19;5.97;;;2.10;;
37785;SDS011;23625;48.784;9.336;2022-09-21T18:12:52;2.55;;;1.25;;
37785;SDS011;23625;48.784;9.336;2022-09-21T18:18:18;5.05;;;1.40;;
37785;SDS011;23625;48.784;9.336;2022-09-21T18:21:02;8.90;;;1.90;;
37785;SDS011;23625;48.784;9.336;2022-09-21T18:26:08;5.40;;;1.85;;
37785;SDS011;23625;48.784;9.336;2022-09-21T18:28:42;3.70;;;1.08;;
37785;SDS011;23625;48.784;9.336;2022-09-21T18:37:15;6.10;;;2.80;;
37785;SDS011;23625;48.784;9.336;2022-09-21T18:42:52;1.13;;;1.02;;
37785;SDS011;23625;48.784;9.336;2022-09-21T18:45:44;1.48;;;1.17;;
37785;SDS011;23625;48.784;9.336;2022-09-21T18:50:56;4.10;;;1.50;;
37785;SDS011;23625;48.784;9.336;2022-09-21T18:56:10;4.85;;;1.38;;